sensor_id;sensor_type;location;lat;lon;timestamp;P1;durP1;ratioP1;P2;durP2;ratioP2
29712;SDS011;16623;53.632;10.016;2023-07-08T00:00:46;10.02;;;5.18;;
29712;SDS011;16623;53.632;10.016;2023-07-08T00:03:14;7.88;;;4.70;;
29712;SDS011;16623;53.632;10.016;2023-07-08T00:05:40;8.13;;;4.55;;
29712;SDS011;16623;53.632;10.016;2023-07-08T00:08:13;9.82;;;5.47;;
29712;SDS011;16623;53.632;10.016;2023-07-08T00:10:39;8.10;;;5.28;;
29712;SDS011;16623;53.632;10.016;2023-07-08T00:13:05;7.00;;;4.30;;
29712;SDS011;16623;53.632;10.016;2023-07-08T00:15:33;10.88;;;4.93;;
29712;SDS011;16623;53.632;10.016;2023-07-08T00:17:59;8.43;;;4.13;;
29712;SDS011;16623;53.632;10.016;2023-07-08T00:20:38;13.63;;;5.00;;
29712;SDS011;16623;53.632;10.016;2023-07-08T00:23:05;6.85;;;4.72;;
29712;SDS011;16623;53.632;10.016;2023-07-08T00:25:33;9.48;;;4.75;;
29712;SDS011;16623;53.632;10.016;2023-07-08T00:27:58;8.55;;;4.95;;
29712;SDS011;16623;53.632;10.016;2023-07-08T00:30:28;6.43;;;4.72;;
29712;SDS011;16623;53.632;10.016;2023-07-08T00:32:56;6.90;;;4.20;;
29712;SDS011;16623;53.632;10.016;2023-07-08T00:35:24;8.63;;;4.88;;
29712;SDS011;16623;53.632;10.016;2023-07-08T00:37:54;6.85;;;5.05;;
29712;SDS011;16623;53.632;10.016;2023-07-08T00:40:26;13.05;;;6.05;;
29712;SDS011;16623;53.632;10.016;2023-07-08T00:42:54;9.43;;;5.57;;
29712;SDS011;16623;53.632;10.016;2023-07-08T00:48:06;8.20;;;4.70;;
29712;SDS011;16623;53.632;10.016;2023-07-08T00:50:40;10.02;;;4.47;;
29712;SDS011;16623;53.632;10.016;2023-07-08T00:55:57;10.93;;;5.38;;
29712;SDS011;16623;53.632;10.016;2023-07-08T00:58:37;10.38;;;4.78;;
29712;SDS011;16623;53.632;10.016;2023-07-08T01:01:07;9.77;;;4.72;;
29712;SDS011;16623;53.632;10.016;2023-07-08T01:03:43;11.50;;;5.22;;
29712;SDS011;16623;53.632;10.016;2023-07-08T01:06:14;6.68;;;5.03;;
29712;SDS011;16623;53.632;10.016;2023-07-08T01:08:41;9.40;;;4.82;;
29712;SDS011;16623;53.632;10.016;2023-07-08T01:11:07;8.38;;;4.30;;
29712;SDS011;16623;53.632;10.016;2023-07-08T01:13:34;7.22;;;4.90;;
29712;SDS011;16623;53.632;10.016;2023-07-08T01:16:04;6.63;;;4.63;;
29712;SDS011;16623;53.632;10.016;2023-07-08T01:18:31;9.88;;;5.20;;
29712;SDS011;16623;53.632;10.016;2023-07-08T01:21:03;9.27;;;6.13;;
29712;SDS011;16623;53.632;10.016;2023-07-08T01:23:31;10.15;;;5.05;;
29712;SDS011;16623;53.632;10.016;2023-07-08T01:25:58;9.45;;;5.47;;
29712;SDS011;16623;53.632;10.016;2023-07-08T01:28:25;10.30;;;5.40;;
29712;SDS011;16623;53.632;10.016;2023-07-08T01:30:52;10.57;;;5.35;;
29712;SDS011;16623;53.632;10.016;2023-07-08T01:33:19;9.05;;;4.78;;
29712;SDS011;16623;53.632;10.016;2023-07-08T01:35:47;7.47;;;4.95;;
29712;SDS011;16623;53.632;10.016;2023-07-08T01:38:16;8.05;;;4.97;;
29712;SDS011;16623;53.632;10.016;2023-07-08T01:40:50;9.95;;;4.55;;
29712;SDS011;16623;53.632;10.016;2023-07-08T01:43:17;8.52;;;5.00;;
29712;SDS011;16623;53.632;10.016;2023-07-08T01:45:43;6.47;;;4.95;;
29712;SDS011;16623;53.632;10.016;2023-07-08T01:48:10;7.40;;;5.22;;
29712;SDS011;16623;53.632;10.016;2023-07-08T01:51:00;7.80;;;4.78;;
29712;SDS011;16623;53.632;10.016;2023-07-08T01:53:32;8.48;;;5.82;;
29712;SDS011;16623;53.632;10.016;2023-07-08T01:56:05;10.38;;;5.88;;
29712;SDS011;16623;53.632;10.016;2023-07-08T01:58:32;9.57;;;5.40;;
29712;SDS011;16623;53.632;10.016;2023-07-08T02:00:58;10.50;;;5.30;;
29712;SDS011;16623;53.632;10.016;2023-07-08T02:03:24;10.63;;;4.95;;
29712;SDS011;16623;53.632;10.016;2023-07-08T02:05:50;7.47;;;5.25;;
29712;SDS011;16623;53.632;10.016;2023-07-08T02:08:16;7.03;;;4.88;;
29712;SDS011;16623;53.632;10.016;2023-07-08T02:10:42;11.38;;;5.68;;
29712;SDS011;16623;53.632;10.016;2023-07-08T02:13:08;10.48;;;5.25;;
29712;SDS011;16623;53.632;10.016;2023-07-08T02:15:34;7.97;;;5.20;;
29712;SDS011;16623;53.632;10.016;2023-07-08T02:18:00;7.10;;;4.95;;
29712;SDS011;16623;53.632;10.016;2023-07-08T02:20:25;8.77;;;5.22;;
29712;SDS011;16623;53.632;10.016;2023-07-08T02:22:51;7.63;;;5.25;;
29712;SDS011;16623;53.632;10.016;2023-07-08T02:25:17;6.28;;;4.93;;
29712;SDS011;16623;53.632;10.016;2023-07-08T02:27:42;9.68;;;5.22;;
29712;SDS011;16623;53.632;10.016;2023-07-08T02:30:08;7.75;;;5.15;;
29712;SDS011;16623;53.632;10.016;2023-07-08T02:32:35;11.82;;;5.30;;
29712;SDS011;16623;53.632;10.016;2023-07-08T02:35:03;11.85;;;5.93;;
29712;SDS011;16623;53.632;10.016;2023-07-08T02:37:32;10.00;;;5.07;;
29712;SDS011;16623;53.632;10.016;2023-07-08T02:39:58;11.40;;;5.60;;
29712;SDS011;16623;53.632;10.016;2023-07-08T02:42:24;15.88;;;5.55;;
29712;SDS011;16623;53.632;10.016;2023-07-08T02:44:49;8.40;;;5.65;;
29712;SDS011;16623;53.632;10.016;2023-07-08T02:47:15;6.35;;;5.13;;
29712;SDS011;16623;53.632;10.016;2023-07-08T02:49:41;5.55;;;4.50;;
29712;SDS011;16623;53.632;10.016;2023-07-08T02:52:06;8.93;;;5.72;;
29712;SDS011;16623;53.632;10.016;2023-07-08T02:54:32;9.90;;;5.72;;
29712;SDS011;16623;53.632;10.016;2023-07-08T02:56:57;8.60;;;5.07;;
29712;SDS011;16623;53.632;10.016;2023-07-08T02:59:23;9.77;;;5.15;;
29712;SDS011;16623;53.632;10.016;2023-07-08T03:01:48;9.85;;;4.82;;
29712;SDS011;16623;53.632;10.016;2023-07-08T03:04:15;8.88;;;4.80;;
29712;SDS011;16623;53.632;10.016;2023-07-08T03:06:41;7.80;;;4.88;;
29712;SDS011;16623;53.632;10.016;2023-07-08T03:09:08;8.90;;;5.10;;
29712;SDS011;16623;53.632;10.016;2023-07-08T03:11:35;7.07;;;5.28;;
29712;SDS011;16623;53.632;10.016;2023-07-08T03:14:01;7.43;;;4.80;;
29712;SDS011;16623;53.632;10.016;2023-07-08T03:16:27;9.10;;;4.93;;
29712;SDS011;16623;53.632;10.016;2023-07-08T03:18:52;5.75;;;4.90;;
29712;SDS011;16623;53.632;10.016;2023-07-08T03:21:18;11.00;;;5.20;;
29712;SDS011;16623;53.632;10.016;2023-07-08T03:23:45;8.88;;;5.00;;
29712;SDS011;16623;53.632;10.016;2023-07-08T03:26:14;9.80;;;5.60;;
29712;SDS011;16623;53.632;10.016;2023-07-08T03:28:43;7.97;;;5.18;;
29712;SDS011;16623;53.632;10.016;2023-07-08T03:31:09;9.73;;;5.18;;
29712;SDS011;16623;53.632;10.016;2023-07-08T03:33:35;7.45;;;4.78;;
29712;SDS011;16623;53.632;10.016;2023-07-08T03:36:02;8.32;;;5.35;;
29712;SDS011;16623;53.632;10.016;2023-07-08T03:38:28;9.02;;;5.75;;
29712;SDS011;16623;53.632;10.016;2023-07-08T03:40:54;7.07;;;5.43;;
29712;SDS011;16623;53.632;10.016;2023-07-08T03:43:19;8.52;;;5.47;;
29712;SDS011;16623;53.632;10.016;2023-07-08T03:45:45;7.88;;;5.43;;
29712;SDS011;16623;53.632;10.016;2023-07-08T03:48:11;7.50;;;5.55;;
29712;SDS011;16623;53.632;10.016;2023-07-08T03:50:37;8.75;;;5.10;;
29712;SDS011;16623;53.632;10.016;2023-07-08T03:53:03;8.13;;;5.60;;
29712;SDS011;16623;53.632;10.016;2023-07-08T03:55:28;9.63;;;5.65;;
29712;SDS011;16623;53.632;10.016;2023-07-08T03:57:54;7.45;;;5.80;;
29712;SDS011;16623;53.632;10.016;2023-07-08T04:00:19;12.77;;;5.22;;
29712;SDS011;16623;53.632;10.016;2023-07-08T04:02:45;9.38;;;4.22;;
29712;SDS011;16623;53.632;10.016;2023-07-08T04:05:15;7.80;;;4.28;;
29712;SDS011;16623;53.632;10.016;2023-07-08T04:07:42;8.73;;;4.85;;
29712;SDS011;16623;53.632;10.016;2023-07-08T04:10:08;10.20;;;4.80;;
29712;SDS011;16623;53.632;10.016;2023-07-08T04:12:34;10.02;;;4.30;;
29712;SDS011;16623;53.632;10.016;2023-07-08T04:15:00;8.50;;;5.43;;
29712;SDS011;16623;53.632;10.016;2023-07-08T04:17:26;11.35;;;4.50;;
29712;SDS011;16623;53.632;10.016;2023-07-08T04:19:52;11.85;;;4.60;;
29712;SDS011;16623;53.632;10.016;2023-07-08T04:22:17;8.07;;;4.82;;
29712;SDS011;16623;53.632;10.016;2023-07-08T04:24:43;11.13;;;4.82;;
29712;SDS011;16623;53.632;10.016;2023-07-08T04:27:13;10.25;;;4.20;;
29712;SDS011;16623;53.632;10.016;2023-07-08T04:29:40;12.82;;;4.65;;
29712;SDS011;16623;53.632;10.016;2023-07-08T04:32:06;8.55;;;4.63;;
29712;SDS011;16623;53.632;10.016;2023-07-08T04:34:32;5.35;;;3.70;;
29712;SDS011;16623;53.632;10.016;2023-07-08T04:36:58;7.70;;;3.95;;
29712;SDS011;16623;53.632;10.016;2023-07-08T04:39:23;6.82;;;4.25;;
29712;SDS011;16623;53.632;10.016;2023-07-08T04:41:49;6.60;;;3.95;;
29712;SDS011;16623;53.632;10.016;2023-07-08T04:44:14;6.85;;;3.63;;
29712;SDS011;16623;53.632;10.016;2023-07-08T04:46:46;7.05;;;3.47;;
29712;SDS011;16623;53.632;10.016;2023-07-08T04:49:31;7.10;;;3.38;;
29712;SDS011;16623;53.632;10.016;2023-07-08T04:51:58;6.22;;;3.55;;
29712;SDS011;16623;53.632;10.016;2023-07-08T04:54:27;8.93;;;3.20;;
29712;SDS011;16623;53.632;10.016;2023-07-08T04:56:53;4.40;;;3.40;;
29712;SDS011;16623;53.632;10.016;2023-07-08T04:59:20;5.68;;;3.38;;
29712;SDS011;16623;53.632;10.016;2023-07-08T05:01:47;5.72;;;2.70;;
29712;SDS011;16623;53.632;10.016;2023-07-08T05:04:14;4.13;;;3.40;;
29712;SDS011;16623;53.632;10.016;2023-07-08T05:06:41;13.48;;;4.05;;
29712;SDS011;16623;53.632;10.016;2023-07-08T05:09:07;7.00;;;3.20;;
29712;SDS011;16623;53.632;10.016;2023-07-08T05:11:33;8.15;;;3.50;;
29712;SDS011;16623;53.632;10.016;2023-07-08T05:13:59;6.93;;;3.00;;
29712;SDS011;16623;53.632;10.016;2023-07-08T05:16:25;7.50;;;3.60;;
29712;SDS011;16623;53.632;10.016;2023-07-08T05:18:51;9.55;;;2.80;;
29712;SDS011;16623;53.632;10.016;2023-07-08T05:21:17;9.88;;;2.95;;
29712;SDS011;16623;53.632;10.016;2023-07-08T05:23:44;4.57;;;3.25;;
29712;SDS011;16623;53.632;10.016;2023-07-08T05:26:10;7.68;;;3.13;;
29712;SDS011;16623;53.632;10.016;2023-07-08T05:28:36;8.52;;;2.92;;
29712;SDS011;16623;53.632;10.016;2023-07-08T05:31:01;6.55;;;3.17;;
29712;SDS011;16623;53.632;10.016;2023-07-08T05:33:28;6.15;;;2.95;;
29712;SDS011;16623;53.632;10.016;2023-07-08T05:35:55;4.47;;;2.85;;
29712;SDS011;16623;53.632;10.016;2023-07-08T05:38:21;6.22;;;3.05;;
29712;SDS011;16623;53.632;10.016;2023-07-08T05:40:49;4.47;;;2.50;;
29712;SDS011;16623;53.632;10.016;2023-07-08T05:43:18;6.82;;;2.47;;
29712;SDS011;16623;53.632;10.016;2023-07-08T05:45:44;5.28;;;2.67;;
29712;SDS011;16623;53.632;10.016;2023-07-08T05:48:10;4.43;;;3.17;;
29712;SDS011;16623;53.632;10.016;2023-07-08T05:50:36;6.15;;;2.70;;
29712;SDS011;16623;53.632;10.016;2023-07-08T05:53:02;6.15;;;2.95;;
29712;SDS011;16623;53.632;10.016;2023-07-08T05:55:27;3.90;;;2.80;;
29712;SDS011;16623;53.632;10.016;2023-07-08T05:57:54;4.70;;;3.17;;
29712;SDS011;16623;53.632;10.016;2023-07-08T06:00:19;6.15;;;2.92;;
29712;SDS011;16623;53.632;10.016;2023-07-08T06:02:45;5.68;;;3.15;;
29712;SDS011;16623;53.632;10.016;2023-07-08T06:05:10;6.40;;;2.80;;
29712;SDS011;16623;53.632;10.016;2023-07-08T06:07:36;7.25;;;2.83;;
29712;SDS011;16623;53.632;10.016;2023-07-08T06:10:02;3.95;;;2.83;;
29712;SDS011;16623;53.632;10.016;2023-07-08T06:12:29;3.88;;;2.58;;
29712;SDS011;16623;53.632;10.016;2023-07-08T06:14:55;6.32;;;2.53;;
29712;SDS011;16623;53.632;10.016;2023-07-08T06:17:21;4.50;;;3.58;;
29712;SDS011;16623;53.632;10.016;2023-07-08T06:19:46;7.85;;;2.67;;
29712;SDS011;16623;53.632;10.016;2023-07-08T06:22:12;8.10;;;3.05;;
29712;SDS011;16623;53.632;10.016;2023-07-08T06:24:38;4.90;;;2.97;;
29712;SDS011;16623;53.632;10.016;2023-07-08T06:27:03;8.18;;;2.45;;
29712;SDS011;16623;53.632;10.016;2023-07-08T06:29:29;4.90;;;2.70;;
29712;SDS011;16623;53.632;10.016;2023-07-08T06:31:55;5.55;;;2.53;;
29712;SDS011;16623;53.632;10.016;2023-07-08T06:34:21;4.35;;;2.70;;
29712;SDS011;16623;53.632;10.016;2023-07-08T06:36:48;5.20;;;2.65;;
29712;SDS011;16623;53.632;10.016;2023-07-08T06:39:15;4.05;;;2.35;;
29712;SDS011;16623;53.632;10.016;2023-07-08T06:41:41;7.85;;;2.63;;
29712;SDS011;16623;53.632;10.016;2023-07-08T06:44:07;4.38;;;2.50;;
29712;SDS011;16623;53.632;10.016;2023-07-08T06:46:33;4.95;;;2.83;;
29712;SDS011;16623;53.632;10.016;2023-07-08T06:48:59;5.68;;;2.72;;
29712;SDS011;16623;53.632;10.016;2023-07-08T06:51:25;4.90;;;2.30;;
29712;SDS011;16623;53.632;10.016;2023-07-08T06:53:51;3.47;;;2.30;;
29712;SDS011;16623;53.632;10.016;2023-07-08T06:56:16;7.95;;;2.67;;
29712;SDS011;16623;53.632;10.016;2023-07-08T06:58:42;5.15;;;2.78;;
29712;SDS011;16623;53.632;10.016;2023-07-08T07:01:08;8.77;;;2.58;;
29712;SDS011;16623;53.632;10.016;2023-07-08T07:03:33;4.70;;;2.78;;
29712;SDS011;16623;53.632;10.016;2023-07-08T07:05:59;8.50;;;2.80;;
29712;SDS011;16623;53.632;10.016;2023-07-08T07:08:24;4.53;;;2.47;;
29712;SDS011;16623;53.632;10.016;2023-07-08T07:10:50;4.20;;;2.78;;
29712;SDS011;16623;53.632;10.016;2023-07-08T07:13:15;4.70;;;2.58;;
29712;SDS011;16623;53.632;10.016;2023-07-08T07:15:41;6.50;;;2.55;;
29712;SDS011;16623;53.632;10.016;2023-07-08T07:18:06;5.90;;;2.42;;
29712;SDS011;16623;53.632;10.016;2023-07-08T07:20:32;3.72;;;1.85;;
29712;SDS011;16623;53.632;10.016;2023-07-08T07:22:58;3.53;;;2.53;;
29712;SDS011;16623;53.632;10.016;2023-07-08T07:25:24;4.45;;;2.10;;
29712;SDS011;16623;53.632;10.016;2023-07-08T07:27:50;6.53;;;2.35;;
29712;SDS011;16623;53.632;10.016;2023-07-08T07:30:15;3.80;;;1.92;;
29712;SDS011;16623;53.632;10.016;2023-07-08T07:32:41;3.80;;;2.25;;
29712;SDS011;16623;53.632;10.016;2023-07-08T07:35:07;7.03;;;2.80;;
29712;SDS011;16623;53.632;10.016;2023-07-08T07:37:40;4.57;;;2.33;;
29712;SDS011;16623;53.632;10.016;2023-07-08T07:40:07;8.40;;;2.78;;
29712;SDS011;16623;53.632;10.016;2023-07-08T07:42:39;4.32;;;2.42;;
29712;SDS011;16623;53.632;10.016;2023-07-08T07:45:06;6.13;;;2.47;;
29712;SDS011;16623;53.632;10.016;2023-07-08T07:47:32;4.95;;;2.58;;
29712;SDS011;16623;53.632;10.016;2023-07-08T07:49:58;5.70;;;2.78;;
29712;SDS011;16623;53.632;10.016;2023-07-08T07:52:24;3.15;;;2.40;;
29712;SDS011;16623;53.632;10.016;2023-07-08T07:54:53;3.05;;;2.15;;
29712;SDS011;16623;53.632;10.016;2023-07-08T07:57:20;8.02;;;3.05;;
29712;SDS011;16623;53.632;10.016;2023-07-08T07:59:46;5.72;;;2.38;;
29712;SDS011;16623;53.632;10.016;2023-07-08T08:02:13;4.22;;;2.28;;
29712;SDS011;16623;53.632;10.016;2023-07-08T08:04:40;4.05;;;2.30;;
29712;SDS011;16623;53.632;10.016;2023-07-08T08:07:05;6.70;;;2.22;;
29712;SDS011;16623;53.632;10.016;2023-07-08T08:09:31;3.30;;;2.40;;
29712;SDS011;16623;53.632;10.016;2023-07-08T08:11:56;4.47;;;2.35;;
29712;SDS011;16623;53.632;10.016;2023-07-08T08:14:22;4.93;;;2.50;;
29712;SDS011;16623;53.632;10.016;2023-07-08T08:16:47;4.93;;;2.10;;
29712;SDS011;16623;53.632;10.016;2023-07-08T08:19:13;5.88;;;2.33;;
29712;SDS011;16623;53.632;10.016;2023-07-08T08:21:39;4.78;;;2.88;;
29712;SDS011;16623;53.632;10.016;2023-07-08T08:24:04;4.10;;;2.30;;
29712;SDS011;16623;53.632;10.016;2023-07-08T08:26:30;8.07;;;2.58;;
29712;SDS011;16623;53.632;10.016;2023-07-08T08:28:56;5.13;;;2.30;;
29712;SDS011;16623;53.632;10.016;2023-07-08T08:31:21;4.25;;;2.20;;
29712;SDS011;16623;53.632;10.016;2023-07-08T08:33:47;4.28;;;2.28;;
29712;SDS011;16623;53.632;10.016;2023-07-08T08:36:12;6.93;;;2.72;;
29712;SDS011;16623;53.632;10.016;2023-07-08T08:38:38;3.35;;;2.20;;
29712;SDS011;16623;53.632;10.016;2023-07-08T08:41:04;4.15;;;2.30;;
29712;SDS011;16623;53.632;10.016;2023-07-08T08:43:37;3.40;;;2.28;;
29712;SDS011;16623;53.632;10.016;2023-07-08T08:46:22;4.05;;;2.40;;
29712;SDS011;16623;53.632;10.016;2023-07-08T08:51:32;2.47;;;2.15;;
29712;SDS011;16623;53.632;10.016;2023-07-08T08:53:58;4.20;;;2.33;;
29712;SDS011;16623;53.632;10.016;2023-07-08T08:56:27;2.90;;;2.20;;
29712;SDS011;16623;53.632;10.016;2023-07-08T08:59:07;3.83;;;2.20;;
29712;SDS011;16623;53.632;10.016;2023-07-08T09:01:52;3.33;;;2.15;;
29712;SDS011;16623;53.632;10.016;2023-07-08T09:04:22;3.95;;;2.35;;
29712;SDS011;16623;53.632;10.016;2023-07-08T09:06:52;7.07;;;3.25;;
29712;SDS011;16623;53.632;10.016;2023-07-08T09:09:32;4.07;;;2.28;;
29712;SDS011;16623;53.632;10.016;2023-07-08T09:12:06;3.35;;;2.30;;
29712;SDS011;16623;53.632;10.016;2023-07-08T09:14:41;6.00;;;2.40;;
29712;SDS011;16623;53.632;10.016;2023-07-08T09:17:27;5.10;;;2.05;;
29712;SDS011;16623;53.632;10.016;2023-07-08T09:22:46;5.07;;;2.10;;
29712;SDS011;16623;53.632;10.016;2023-07-08T09:25:24;5.15;;;2.80;;
29712;SDS011;16623;53.632;10.016;2023-07-08T09:27:53;4.88;;;2.28;;
29712;SDS011;16623;53.632;10.016;2023-07-08T09:30:20;3.80;;;1.85;;
29712;SDS011;16623;53.632;10.016;2023-07-08T09:32:47;5.13;;;2.60;;
29712;SDS011;16623;53.632;10.016;2023-07-08T09:35:17;4.97;;;2.45;;
29712;SDS011;16623;53.632;10.016;2023-07-08T09:37:49;5.22;;;2.30;;
29712;SDS011;16623;53.632;10.016;2023-07-08T09:40:17;4.38;;;2.30;;
29712;SDS011;16623;53.632;10.016;2023-07-08T09:42:46;3.25;;;2.30;;
29712;SDS011;16623;53.632;10.016;2023-07-08T09:45:22;4.50;;;2.50;;
29712;SDS011;16623;53.632;10.016;2023-07-08T09:47:52;7.32;;;2.28;;
29712;SDS011;16623;53.632;10.016;2023-07-08T09:50:23;3.38;;;2.38;;
29712;SDS011;16623;53.632;10.016;2023-07-08T09:52:52;4.20;;;2.30;;
29712;SDS011;16623;53.632;10.016;2023-07-08T09:55:22;4.32;;;2.28;;
29712;SDS011;16623;53.632;10.016;2023-07-08T09:57:49;7.28;;;3.00;;
29712;SDS011;16623;53.632;10.016;2023-07-08T10:00:18;3.50;;;2.33;;
29712;SDS011;16623;53.632;10.016;2023-07-08T10:02:54;3.05;;;2.13;;
29712;SDS011;16623;53.632;10.016;2023-07-08T10:07:56;5.90;;;2.20;;
29712;SDS011;16623;53.632;10.016;2023-07-08T10:10:28;8.02;;;2.78;;
29712;SDS011;16623;53.632;10.016;2023-07-08T10:13:04;3.67;;;2.20;;
29712;SDS011;16623;53.632;10.016;2023-07-08T10:15:43;6.35;;;2.80;;
29712;SDS011;16623;53.632;10.016;2023-07-08T10:18:17;8.27;;;2.33;;
29712;SDS011;16623;53.632;10.016;2023-07-08T10:20:54;3.07;;;2.23;;
29712;SDS011;16623;53.632;10.016;2023-07-08T10:23:34;3.95;;;2.50;;
29712;SDS011;16623;53.632;10.016;2023-07-08T10:26:28;4.32;;;2.20;;
29712;SDS011;16623;53.632;10.016;2023-07-08T10:28:59;4.47;;;2.60;;
29712;SDS011;16623;53.632;10.016;2023-07-08T10:31:51;3.25;;;2.38;;
29712;SDS011;16623;53.632;10.016;2023-07-08T10:39:56;4.07;;;2.03;;
29712;SDS011;16623;53.632;10.016;2023-07-08T10:45:09;5.38;;;2.75;;
29712;SDS011;16623;53.632;10.016;2023-07-08T10:47:51;2.60;;;2.40;;
29712;SDS011;16623;53.632;10.016;2023-07-08T10:53:36;2.80;;;2.08;;
29712;SDS011;16623;53.632;10.016;2023-07-08T10:56:14;5.00;;;1.98;;
29712;SDS011;16623;53.632;10.016;2023-07-08T11:05:10;2.72;;;2.15;;
29712;SDS011;16623;53.632;10.016;2023-07-08T11:07:53;3.33;;;2.42;;
29712;SDS011;16623;53.632;10.016;2023-07-08T11:11:08;3.28;;;2.30;;
29712;SDS011;16623;53.632;10.016;2023-07-08T11:13:19;3.77;;;2.27;;
29712;SDS011;16623;53.632;10.016;2023-07-08T11:16:04;3.38;;;2.30;;
29712;SDS011;16623;53.632;10.016;2023-07-08T11:18:41;4.07;;;2.15;;
29712;SDS011;16623;53.632;10.016;2023-07-08T11:21:14;5.05;;;2.67;;
29712;SDS011;16623;53.632;10.016;2023-07-08T11:29:14;3.55;;;2.30;;
29712;SDS011;16623;53.632;10.016;2023-07-08T11:31:46;2.90;;;2.40;;
29712;SDS011;16623;53.632;10.016;2023-07-08T11:34:13;8.35;;;2.47;;
29712;SDS011;16623;53.632;10.016;2023-07-08T11:36:41;5.50;;;2.30;;
29712;SDS011;16623;53.632;10.016;2023-07-08T11:39:25;5.63;;;2.50;;
29712;SDS011;16623;53.632;10.016;2023-07-08T11:42:03;5.57;;;2.10;;
29712;SDS011;16623;53.632;10.016;2023-07-08T11:44:37;4.50;;;2.22;;
29712;SDS011;16623;53.632;10.016;2023-07-08T11:50:19;6.63;;;2.60;;
29712;SDS011;16623;53.632;10.016;2023-07-08T11:52:50;2.40;;;2.08;;
29712;SDS011;16623;53.632;10.016;2023-07-08T11:55:43;6.15;;;2.40;;
29712;SDS011;16623;53.632;10.016;2023-07-08T11:58:23;4.43;;;2.45;;
29712;SDS011;16623;53.632;10.016;2023-07-08T12:03:35;2.65;;;2.10;;
29712;SDS011;16623;53.632;10.016;2023-07-08T12:06:32;6.03;;;2.33;;
29712;SDS011;16623;53.632;10.016;2023-07-08T12:08:59;2.70;;;2.20;;
29712;SDS011;16623;53.632;10.016;2023-07-08T12:11:39;5.30;;;2.20;;
29712;SDS011;16623;53.632;10.016;2023-07-08T12:14:08;8.18;;;2.45;;
29712;SDS011;16623;53.632;10.016;2023-07-08T12:16:34;4.10;;;2.20;;
29712;SDS011;16623;53.632;10.016;2023-07-08T12:19:01;5.97;;;2.38;;
29712;SDS011;16623;53.632;10.016;2023-07-08T12:21:29;4.20;;;2.10;;
29712;SDS011;16623;53.632;10.016;2023-07-08T12:24:02;3.17;;;2.28;;
29712;SDS011;16623;53.632;10.016;2023-07-08T12:26:31;3.75;;;2.50;;
29712;SDS011;16623;53.632;10.016;2023-07-08T12:28:58;5.95;;;2.45;;
29712;SDS011;16623;53.632;10.016;2023-07-08T12:31:23;3.97;;;2.20;;
29712;SDS011;16623;53.632;10.016;2023-07-08T12:33:50;7.55;;;2.40;;
29712;SDS011;16623;53.632;10.016;2023-07-08T12:36:20;4.32;;;2.13;;
29712;SDS011;16623;53.632;10.016;2023-07-08T12:38:50;2.88;;;2.20;;
29712;SDS011;16623;53.632;10.016;2023-07-08T12:41:24;6.47;;;2.30;;
29712;SDS011;16623;53.632;10.016;2023-07-08T12:43:52;5.55;;;2.40;;
29712;SDS011;16623;53.632;10.016;2023-07-08T12:46:19;5.15;;;2.22;;
29712;SDS011;16623;53.632;10.016;2023-07-08T12:48:45;7.35;;;2.55;;
29712;SDS011;16623;53.632;10.016;2023-07-08T12:51:13;3.40;;;2.20;;
29712;SDS011;16623;53.632;10.016;2023-07-08T12:53:40;3.38;;;2.38;;
29712;SDS011;16623;53.632;10.016;2023-07-08T12:56:07;4.15;;;2.53;;
29712;SDS011;16623;53.632;10.016;2023-07-08T12:58:34;5.63;;;2.90;;
29712;SDS011;16623;53.632;10.016;2023-07-08T13:01:11;4.70;;;2.50;;
29712;SDS011;16623;53.632;10.016;2023-07-08T13:03:43;2.70;;;2.22;;
29712;SDS011;16623;53.632;10.016;2023-07-08T13:06:12;20.85;;;17.23;;
29712;SDS011;16623;53.632;10.016;2023-07-08T13:08:41;5.55;;;2.58;;
29712;SDS011;16623;53.632;10.016;2023-07-08T13:11:08;3.65;;;2.03;;
29712;SDS011;16623;53.632;10.016;2023-07-08T13:13:34;3.72;;;2.65;;
29712;SDS011;16623;53.632;10.016;2023-07-08T13:16:02;5.40;;;2.30;;
29712;SDS011;16623;53.632;10.016;2023-07-08T13:18:32;3.88;;;2.80;;
29712;SDS011;16623;53.632;10.016;2023-07-08T13:21:00;4.10;;;2.58;;
29712;SDS011;16623;53.632;10.016;2023-07-08T13:23:26;6.32;;;2.90;;
29712;SDS011;16623;53.632;10.016;2023-07-08T13:25:52;6.45;;;2.60;;
29712;SDS011;16623;53.632;10.016;2023-07-08T13:28:26;2.65;;;2.22;;
29712;SDS011;16623;53.632;10.016;2023-07-08T13:31:01;3.15;;;2.45;;
29712;SDS011;16623;53.632;10.016;2023-07-08T13:33:31;4.43;;;2.60;;
29712;SDS011;16623;53.632;10.016;2023-07-08T13:36:02;5.82;;;2.97;;
29712;SDS011;16623;53.632;10.016;2023-07-08T13:38:33;3.38;;;2.53;;
29712;SDS011;16623;53.632;10.016;2023-07-08T13:41:01;3.03;;;2.60;;
29712;SDS011;16623;53.632;10.016;2023-07-08T13:43:30;5.38;;;3.00;;
29712;SDS011;16623;53.632;10.016;2023-07-08T13:45:57;8.55;;;2.58;;
29712;SDS011;16623;53.632;10.016;2023-07-08T13:48:27;6.22;;;2.65;;
29712;SDS011;16623;53.632;10.016;2023-07-08T13:53:47;4.05;;;2.78;;
29712;SDS011;16623;53.632;10.016;2023-07-08T13:56:19;2.92;;;2.20;;
29712;SDS011;16623;53.632;10.016;2023-07-08T13:59:09;2.67;;;2.40;;
29712;SDS011;16623;53.632;10.016;2023-07-08T14:01:38;5.07;;;2.70;;
29712;SDS011;16623;53.632;10.016;2023-07-08T14:04:06;7.22;;;3.28;;
29712;SDS011;16623;53.632;10.016;2023-07-08T14:06:33;4.45;;;2.35;;
29712;SDS011;16623;53.632;10.016;2023-07-08T14:11:38;8.40;;;2.40;;
29712;SDS011;16623;53.632;10.016;2023-07-08T14:14:04;5.78;;;2.55;;
29712;SDS011;16623;53.632;10.016;2023-07-08T14:16:30;4.15;;;2.60;;
29712;SDS011;16623;53.632;10.016;2023-07-08T14:18:59;4.03;;;2.55;;
29712;SDS011;16623;53.632;10.016;2023-07-08T14:21:28;3.75;;;2.65;;
29712;SDS011;16623;53.632;10.016;2023-07-08T14:23:55;5.43;;;3.30;;
29712;SDS011;16623;53.632;10.016;2023-07-08T14:26:20;3.47;;;2.47;;
29712;SDS011;16623;53.632;10.016;2023-07-08T14:28:46;3.70;;;2.42;;
29712;SDS011;16623;53.632;10.016;2023-07-08T14:31:12;5.55;;;2.42;;
29712;SDS011;16623;53.632;10.016;2023-07-08T14:33:42;4.55;;;2.40;;
29712;SDS011;16623;53.632;10.016;2023-07-08T14:36:10;3.60;;;2.78;;
29712;SDS011;16623;53.632;10.016;2023-07-08T14:38:37;5.05;;;3.00;;
29712;SDS011;16623;53.632;10.016;2023-07-08T14:41:03;6.07;;;3.00;;
29712;SDS011;16623;53.632;10.016;2023-07-08T14:43:30;5.53;;;2.90;;
29712;SDS011;16623;53.632;10.016;2023-07-08T14:45:57;6.47;;;3.38;;
29712;SDS011;16623;53.632;10.016;2023-07-08T14:48:28;3.90;;;2.90;;
29712;SDS011;16623;53.632;10.016;2023-07-08T14:50:54;6.60;;;2.97;;
29712;SDS011;16623;53.632;10.016;2023-07-08T14:53:20;3.05;;;2.63;;
29712;SDS011;16623;53.632;10.016;2023-07-08T14:55:46;5.20;;;2.67;;
29712;SDS011;16623;53.632;10.016;2023-07-08T14:58:24;9.10;;;3.20;;
29712;SDS011;16623;53.632;10.016;2023-07-08T15:00:53;6.65;;;2.83;;
29712;SDS011;16623;53.632;10.016;2023-07-08T15:03:21;4.78;;;2.70;;
29712;SDS011;16623;53.632;10.016;2023-07-08T15:05:47;9.95;;;2.88;;
29712;SDS011;16623;53.632;10.016;2023-07-08T15:08:12;3.58;;;2.78;;
29712;SDS011;16623;53.632;10.016;2023-07-08T15:10:38;4.80;;;2.92;;
29712;SDS011;16623;53.632;10.016;2023-07-08T15:15:38;4.10;;;2.65;;
29712;SDS011;16623;53.632;10.016;2023-07-08T15:18:11;5.30;;;2.95;;
29712;SDS011;16623;53.632;10.016;2023-07-08T15:23:04;6.22;;;2.72;;
29712;SDS011;16623;53.632;10.016;2023-07-08T15:25:30;4.78;;;2.65;;
29712;SDS011;16623;53.632;10.016;2023-07-08T15:27:59;5.88;;;3.05;;
29712;SDS011;16623;53.632;10.016;2023-07-08T15:30:27;3.13;;;2.70;;
29712;SDS011;16623;53.632;10.016;2023-07-08T15:32:53;6.25;;;2.88;;
29712;SDS011;16623;53.632;10.016;2023-07-08T15:35:21;6.90;;;2.85;;